Time;durP1;ratioP1;P1;durP2;ratioP2;P2;SDS_P1;SDS_P2;PMS_P1;PMS_P2;Temp;Humidity;BMP_temperature;BMP_pressure;BME280_temperature;BME280_humidity;BME280_pressure;Samples;Min_cycle;Max_cycle;Signal;HPM_P1;HPM_P2
2022/01/04 00:00:16;;;;;;;28.60;4.47;;;9.20;99.90;;;;;;5032233;28;20038;-71
2022/01/04 00:02:42;;;;;;;36.67;4.10;;;9.20;99.90;;;;;;5032024;28;20029;-70
2022/01/04 00:05:08;;;;;;;26.13;3.97;;;9.20;99.90;;;;;;5033628;28;20113;-70
2022/01/04 00:07:34;;;;;;;33.53;4.40;;;9.20;99.90;;;;;;5033336;28;20036;-70
2022/01/04 00:10:00;;;;;;;26.77;4.15;;;9.30;99.90;;;;;;5032958;28;20112;-70
2022/01/04 00:15:11;;;;;;;25.27;3.53;;;9.30;99.90;;;;;;5033455;28;20144;-69
2022/01/04 00:17:37;;;;;;;25.75;5.18;;;9.40;99.90;;;;;;5033451;28;20145;-69
2022/01/04 00:20:04;;;;;;;27.17;5.38;;;9.40;99.90;;;;;;5032738;28;20029;-71
2022/01/04 00:22:30;;;;;;;30.00;5.20;;;9.40;99.90;;;;;;5032654;28;20061;-70
2022/01/04 00:24:56;;;;;;;30.10;4.55;;;9.40;99.90;;;;;;5033100;28;20064;-71
2022/01/04 00:27:21;;;;;;;34.00;4.07;;;9.40;99.90;;;;;;5033087;28;20108;-70
2022/01/04 00:29:47;;;;;;;24.88;4.03;;;9.50;99.90;;;;;;5033088;28;20092;-70
2022/01/04 00:32:13;;;;;;;29.80;3.85;;;9.50;99.90;;;;;;5032706;28;20036;-70
2022/01/04 00:34:38;;;;;;;32.35;4.45;;;9.60;99.90;;;;;;5031678;28;20479;-69
2022/01/04 00:37:04;;;;;;;22.65;4.03;;;9.60;99.90;;;;;;5032905;28;20030;-70
2022/01/04 00:39:29;;;;;;;27.10;4.15;;;9.70;99.90;;;;;;5032538;28;20470;-69
2022/01/04 00:41:55;;;;;;;22.48;4.22;;;9.70;99.90;;;;;;5032896;28;20053;-71
2022/01/04 00:44:21;;;;;;;24.70;4.38;;;9.70;99.90;;;;;;5032858;28;20022;-70
2022/01/04 00:46:46;;;;;;;29.30;4.68;;;9.70;99.90;;;;;;5033093;28;20025;-70
2022/01/04 00:49:12;;;;;;;23.58;4.30;;;9.70;99.90;;;;;;5032619;28;20029;-70
2022/01/04 00:51:40;;;;;;;33.13;6.72;;;9.80;99.90;;;;;;5032447;28;20079;-70
2022/01/04 00:54:06;;;;;;;27.55;5.38;;;9.80;99.90;;;;;;5032248;28;20425;-69
2022/01/04 00:56:32;;;;;;;20.48;4.90;;;9.70;99.90;;;;;;5032526;28;20063;-70
2022/01/04 00:58:58;;;;;;;23.88;5.63;;;9.80;99.90;;;;;;5032752;28;20083;-70
2022/01/04 01:01:24;;;;;;;24.98;4.88;;;9.80;99.90;;;;;;5032696;28;20386;-69
2022/01/04 01:03:49;;;;;;;25.85;4.85;;;9.90;99.90;;;;;;5031122;28;20037;-69
2022/01/04 01:06:15;;;;;;;29.55;5.97;;;9.90;99.90;;;;;;5032816;28;20029;-69
2022/01/04 01:08:41;;;;;;;25.27;4.68;;;9.90;99.90;;;;;;5032697;28;20048;-68
2022/01/04 01:11:08;;;;;;;28.75;4.93;;;9.90;99.90;;;;;;5030984;28;20021;-70
2022/01/04 01:13:34;;;;;;;33.28;6.70;;;9.80;99.90;;;;;;5032454;28;20125;-69
2022/01/04 01:16:00;;;;;;;24.52;5.18;;;9.80;99.90;;;;;;5032516;28;20021;-70
2022/01/04 01:18:25;;;;;;;25.63;5.50;;;9.80;99.90;;;;;;5032069;28;20022;-69
2022/01/04 01:20:51;;;;;;;25.15;5.20;;;9.80;99.90;;;;;;5031828;28;20113;-69
2022/01/04 01:23:19;;;;;;;25.27;6.15;;;9.80;99.90;;;;;;5031029;28;20025;-68
2022/01/04 01:25:44;;;;;;;23.35;6.20;;;9.80;99.90;;;;;;5032256;28;20065;-70
2022/01/04 01:28:10;;;;;;;21.23;6.07;;;9.80;99.90;;;;;;5032373;28;20444;-69
2022/01/04 01:30:39;;;;;;;26.27;5.47;;;9.80;99.90;;;;;;5032128;28;20091;-69
2022/01/04 01:33:05;;;;;;;25.95;6.43;;;9.80;99.90;;;;;;5034130;28;20038;-68
2022/01/04 01:35:33;;;;;;;22.52;6.00;;;9.80;99.90;;;;;;5036018;28;20026;-70
2022/01/04 01:38:00;;;;;;;21.45;5.05;;;9.80;99.90;;;;;;5036309;28;20017;-71
2022/01/04 01:40:26;;;;;;;24.80;5.63;;;9.80;99.90;;;;;;5035883;28;20489;-69
2022/01/04 01:42:52;;;;;;;23.55;5.68;;;9.80;99.90;;;;;;5036159;28;20026;-68
2022/01/04 01:45:19;;;;;;;25.80;7.28;;;9.80;99.90;;;;;;5036101;28;20040;-68
2022/01/04 01:47:45;;;;;;;19.63;6.13;;;9.80;99.90;;;;;;5035867;28;20068;-70
2022/01/04 01:50:12;;;;;;;29.40;5.72;;;9.70;99.90;;;;;;5035775;28;20527;-69
2022/01/04 01:52:39;;;;;;;25.00;5.97;;;9.70;99.90;;;;;;5036037;28;20463;-70
2022/01/04 01:55:06;;;;;;;25.73;5.65;;;9.70;99.90;;;;;;5036357;28;20025;-70
2022/01/04 01:57:31;;;;;;;25.20;4.82;;;9.80;99.90;;;;;;5035940;28;20036;-70
2022/01/04 01:59:58;;;;;;;18.60;5.30;;;9.80;99.90;;;;;;5035820;28;20026;-70
2022/01/04 02:02:23;;;;;;;32.65;5.97;;;9.70;99.90;;;;;;5035849;28;20030;-70
2022/01/04 02:04:49;;;;;;;21.38;4.97;;;9.70;99.90;;;;;;5035540;28;20418;-69
2022/01/04 02:07:18;;;;;;;18.60;5.28;;;9.70;99.90;;;;;;5035764;28;20033;-70
2022/01/04 02:09:52;;;;;;;25.55;5.80;;;9.60;99.90;;;;;;5034263;28;20060;-69
2022/01/04 02:12:20;;;;;;;27.10;6.25;;;9.60;99.90;;;;;;5035591;28;20025;-68
2022/01/04 02:14:50;;;;;;;30.35;6.00;;;9.60;99.90;;;;;;5035509;28;20049;-70
2022/01/04 02:17:16;;;;;;;24.67;5.75;;;9.50;99.90;;;;;;5035215;28;20108;-70
2022/01/04 02:19:42;;;;;;;30.67;8.23;;;9.50;99.90;;;;;;5035556;28;20056;-69
2022/01/04 02:22:08;;;;;;;26.60;5.78;;;9.50;99.90;;;;;;5035420;28;20029;-69
2022/01/04 02:24:33;;;;;;;29.52;5.65;;;9.40;99.90;;;;;;5035790;28;20033;-70
2022/01/04 02:27:00;;;;;;;27.00;5.55;;;9.50;99.90;;;;;;5035508;28;20482;-69
2022/01/04 02:29:27;;;;;;;25.80;5.60;;;9.50;99.90;;;;;;5035209;28;20069;-69
2022/01/04 02:31:53;;;;;;;23.40;5.57;;;9.50;99.90;;;;;;5035417;28;20033;-69
2022/01/04 02:34:18;;;;;;;23.40;5.70;;;9.40;99.90;;;;;;5035195;28;20026;-69
2022/01/04 02:36:44;;;;;;;28.05;6.10;;;9.40;99.90;;;;;;5035307;28;20360;-69
2022/01/04 02:39:10;;;;;;;28.50;6.15;;;9.50;99.90;;;;;;5035333;28;20037;-70
2022/01/04 02:41:36;;;;;;;27.30;5.68;;;9.50;99.90;;;;;;5034824;28;20037;-70
2022/01/04 02:44:01;;;;;;;24.80;8.18;;;9.50;99.90;;;;;;5034498;28;20108;-69
2022/01/04 02:46:27;;;;;;;23.10;6.10;;;9.50;99.90;;;;;;5035169;28;20466;-69
2022/01/04 02:48:52;;;;;;;23.83;5.47;;;9.50;99.90;;;;;;5034674;28;20025;-68
2022/01/04 02:51:18;;;;;;;26.08;5.97;;;9.60;99.90;;;;;;5034901;28;20075;-70
2022/01/04 02:53:44;;;;;;;27.35;6.15;;;9.70;99.90;;;;;;5034929;28;20033;-70
2022/01/04 02:56:11;;;;;;;23.98;5.78;;;9.70;99.90;;;;;;5035009;28;20025;-70
2022/01/04 02:58:37;;;;;;;17.85;5.03;;;9.70;99.90;;;;;;5034869;28;20025;-71
2022/01/04 03:01:03;;;;;;;25.17;5.70;;;9.70;99.90;;;;;;5035186;28;20104;-70
2022/01/04 03:03:31;;;;;;;21.15;5.90;;;9.70;99.90;;;;;;5034669;28;20109;-70
2022/01/04 03:05:57;;;;;;;23.05;7.30;;;9.80;99.90;;;;;;5034978;28;20029;-70
2022/01/04 03:08:23;;;;;;;19.50;6.03;;;9.70;99.90;;;;;;5034478;28;20021;-71
2022/01/04 03:10:50;;;;;;;19.08;4.57;;;9.70;99.90;;;;;;5033297;28;20037;-70
2022/01/04 03:13:16;;;;;;;28.95;5.82;;;9.70;99.90;;;;;;5034092;28;20131;-70
2022/01/04 03:15:43;;;;;;;27.13;6.40;;;9.70;99.90;;;;;;5034371;28;20025;-70
2022/01/04 03:18:09;;;;;;;27.52;6.18;;;9.70;99.90;;;;;;5034379;28;20076;-70
2022/01/04 03:20:34;;;;;;;24.98;4.78;;;9.80;99.90;;;;;;5034060;28;20037;-69
2022/01/04 03:23:00;;;;;;;23.55;5.75;;;9.80;99.90;;;;;;5034315;28;20032;-70
2022/01/04 03:25:26;;;;;;;21.10;5.88;;;9.80;99.90;;;;;;5034430;28;20095;-71
2022/01/04 03:27:52;;;;;;;24.33;5.40;;;9.80;99.90;;;;;;5034012;28;20463;-70
2022/01/04 03:30:18;;;;;;;19.63;5.50;;;9.80;99.90;;;;;;5034044;28;20045;-71
2022/01/04 03:32:43;;;;;;;22.83;5.38;;;9.80;99.90;;;;;;5034118;28;20127;-70
2022/01/04 03:35:09;;;;;;;25.23;4.85;;;9.80;99.90;;;;;;5034058;28;20061;-70
2022/01/04 03:37:35;;;;;;;19.95;4.65;;;9.90;99.90;;;;;;5034184;28;20029;-68
2022/01/04 03:40:02;;;;;;;20.80;5.25;;;9.80;99.90;;;;;;5034194;28;20037;-71
2022/01/04 03:42:28;;;;;;;23.75;5.90;;;9.90;99.90;;;;;;5033992;28;20026;-71
2022/01/04 03:44:53;;;;;;;23.00;5.30;;;9.80;99.90;;;;;;5033925;28;20093;-71
2022/01/04 03:47:19;;;;;;;25.45;5.13;;;9.80;99.90;;;;;;5033945;28;20490;-70
2022/01/04 03:49:45;;;;;;;25.73;5.55;;;9.80;99.90;;;;;;5033460;28;20045;-71
2022/01/04 03:52:10;;;;;;;23.55;4.80;;;9.80;99.90;;;;;;5033701;28;20471;-69
2022/01/04 03:54:36;;;;;;;23.98;5.20;;;9.80;99.90;;;;;;5033479;28;20455;-71
2022/01/04 03:57:02;;;;;;;26.33;5.57;;;9.80;99.90;;;;;;5033091;28;20029;-69
2022/01/04 03:59:27;;;;;;;23.55;5.25;;;9.80;99.90;;;;;;5033603;28;20024;-71
2022/01/04 04:01:53;;;;;;;22.30;5.88;;;9.80;99.90;;;;;;5033441;28;20032;-70
2022/01/04 04:04:19;;;;;;;25.90;6.90;;;9.70;99.90;;;;;;5033461;28;20578;-70
2022/01/04 04:06:45;;;;;;;21.92;5.78;;;9.70;99.90;;;;;;5033510;28;20479;-69
2022/01/04 04:09:11;;;;;;;21.83;6.97;;;9.70;99.90;;;;;;5032091;28;20025;-71
2022/01/04 04:11:36;;;;;;;27.95;6.38;;;9.70;99.90;;;;;;5033161;28;20038;-70
2022/01/04 04:14:02;;;;;;;24.48;7.18;;;9.70;99.90;;;;;;5033246;28;20054;-69
2022/01/04 04:16:28;;;;;;;22.17;6.15;;;9.70;99.90;;;;;;5033323;28;20061;-70
2022/01/04 04:18:53;;;;;;;25.92;7.25;;;9.70;99.90;;;;;;5033483;28;20033;-70
2022/01/04 04:21:19;;;;;;;21.13;5.97;;;9.60;99.90;;;;;;5033231;28;20041;-71
2022/01/04 04:23:44;;;;;;;21.27;6.07;;;9.60;99.90;;;;;;5033159;28;20045;-71
2022/01/04 04:26:10;;;;;;;22.23;7.15;;;9.60;99.90;;;;;;5031679;28;20466;-71
2022/01/04 04:28:36;;;;;;;25.10;7.35;;;9.60;99.90;;;;;;5032927;28;20036;-70
2022/01/04 04:31:03;;;;;;;21.08;6.90;;;9.60;99.90;;;;;;5032990;28;20034;-69
2022/01/04 04:33:29;;;;;;;17.65;5.78;;;9.60;99.90;;;;;;5032965;28;20025;-71
2022/01/04 04:35:55;;;;;;;19.30;6.55;;;9.70;99.90;;;;;;5032941;28;20033;-69
2022/01/04 04:38:21;;;;;;;30.58;7.28;;;9.70;99.90;;;;;;5032658;28;20471;-70
2022/01/04 04:40:46;;;;;;;24.90;6.50;;;9.70;99.90;;;;;;5032902;28;20025;-71
2022/01/04 04:43:12;;;;;;;25.38;7.10;;;9.70;99.90;;;;;;5033147;28;20033;-70
2022/01/04 04:45:38;;;;;;;25.15;7.32;;;9.70;99.90;;;;;;5032817;28;20029;-71
2022/01/04 04:48:03;;;;;;;21.13;6.80;;;9.70;99.90;;;;;;5032940;28;20065;-71
2022/01/04 04:50:29;;;;;;;21.88;6.22;;;9.70;99.90;;;;;;5032387;28;20076;-69
2022/01/04 04:52:57;;;;;;;21.23;5.93;;;9.70;99.90;;;;;;5031325;28;20475;-71
2022/01/04 04:55:22;;;;;;;18.58;5.93;;;9.70;99.90;;;;;;5032970;28;20471;-71
2022/01/04 04:57:48;;;;;;;21.83;5.60;;;9.60;99.90;;;;;;5032638;28;20379;-69
2022/01/04 05:00:14;;;;;;;19.15;5.18;;;9.60;99.90;;;;;;5031320;28;20610;-70
2022/01/04 05:02:40;;;;;;;15.82;4.60;;;9.50;99.90;;;;;;5032703;28;20036;-72
2022/01/04 05:05:07;;;;;;;19.45;4.30;;;9.50;99.90;;;;;;5032620;28;20078;-70
2022/01/04 05:07:34;;;;;;;18.67;3.88;;;9.40;99.90;;;;;;5031952;28;20087;-71
2022/01/04 05:10:01;;;;;;;20.33;3.97;;;9.40;99.90;;;;;;5031008;28;20038;-69
2022/01/04 05:12:26;;;;;;;18.23;4.20;;;9.40;99.90;;;;;;5032339;28;20029;-70
2022/01/04 05:14:52;;;;;;;16.40;4.75;;;9.40;99.90;;;;;;5032556;28;20068;-71
2022/01/04 05:17:18;;;;;;;13.93;4.30;;;9.40;99.90;;;;;;5032799;28;20470;-70
2022/01/04 05:19:43;;;;;;;20.27;5.72;;;9.40;99.90;;;;;;5032315;28;20473;-72
2022/01/04 05:22:09;;;;;;;21.98;5.05;;;9.40;99.90;;;;;;5032012;28;20029;-71
2022/01/04 05:24:35;;;;;;;17.35;5.90;;;9.40;99.90;;;;;;5032364;28;20117;-70
2022/01/04 05:27:01;;;;;;;21.00;5.45;;;9.40;99.90;;;;;;5032325;28;20133;-70
2022/01/04 05:29:26;;;;;;;20.30;4.55;;;9.40;99.90;;;;;;5032310;28;20103;-69
2022/01/04 05:31:52;;;;;;;23.05;5.20;;;9.40;99.90;;;;;;5032431;28;20481;-69
2022/01/04 05:34:18;;;;;;;23.95;5.32;;;9.40;99.90;;;;;;5032391;28;20404;-70
2022/01/04 05:36:43;;;;;;;23.35;5.97;;;9.40;99.90;;;;;;5030961;28;20034;-71
2022/01/04 05:39:09;;;;;;;22.42;5.15;;;9.40;99.90;;;;;;5030564;28;20115;-71
2022/01/04 05:41:34;;;;;;;21.90;5.93;;;9.50;99.90;;;;;;5032100;28;20072;-70
2022/01/04 05:44:00;;;;;;;21.27;5.97;;;9.50;99.90;;;;;;5032262;28;20032;-69
2022/01/04 05:46:26;;;;;;;23.50;5.85;;;9.60;99.90;;;;;;5032256;28;20116;-71
2022/01/04 05:48:51;;;;;;;30.60;6.07;;;9.50;99.90;;;;;;5032061;28;20115;-70
2022/01/04 05:51:17;;;;;;;31.17;7.10;;;9.60;99.90;;;;;;5030836;28;20041;-70
2022/01/04 05:53:43;;;;;;;28.05;7.20;;;9.70;99.90;;;;;;5032171;28;20029;-71
2022/01/04 05:56:08;;;;;;;29.15;5.85;;;9.70;99.90;;;;;;5032078;28;20029;-70
2022/01/04 05:58:34;;;;;;;20.83;5.22;;;9.70;99.90;;;;;;5032275;28;20104;-70
2022/01/04 06:01:00;;;;;;;22.98;6.30;;;9.70;99.90;;;;;;5032159;28;20025;-70
2022/01/04 06:03:26;;;;;;;22.38;5.95;;;9.70;99.90;;;;;;5031895;28;20414;-70
2022/01/04 06:05:53;;;;;;;30.95;6.20;;;9.70;99.90;;;;;;5030952;28;20083;-70
2022/01/04 06:08:20;;;;;;;25.80;6.25;;;9.70;99.90;;;;;;5032194;28;20028;-68
2022/01/04 06:10:50;;;;;;;25.58;6.72;;;9.70;99.90;;;;;;5032099;28;20120;-70
2022/01/04 06:16:00;;;;;;;29.77;6.93;;;9.70;99.90;;;;;;5031940;28;20036;-70
2022/01/04 06:18:26;;;;;;;25.73;6.07;;;9.70;99.90;;;;;;5032946;28;20030;-69
2022/01/04 06:20:51;;;;;;;22.48;5.38;;;9.70;99.90;;;;;;5035667;28;20064;-71
2022/01/04 06:23:17;;;;;;;19.17;5.03;;;9.70;99.90;;;;;;5035893;28;20061;-70
2022/01/04 06:25:42;;;;;;;24.50;6.57;;;9.70;99.90;;;;;;5035657;28;20455;-70
2022/01/04 06:28:08;;;;;;;27.75;6.25;;;9.80;99.90;;;;;;5035748;28;20030;-69
2022/01/04 06:30:34;;;;;;;30.00;5.90;;;9.80;99.90;;;;;;5035397;28;20424;-69
2022/01/04 06:33:00;;;;;;;19.25;5.20;;;9.80;99.90;;;;;;5035717;28;20033;-69
2022/01/04 06:35:27;;;;;;;24.48;5.72;;;9.80;99.90;;;;;;5035504;28;20022;-69
2022/01/04 06:37:53;;;;;;;25.98;5.90;;;9.80;99.90;;;;;;5035657;28;20032;-69
2022/01/04 06:40:18;;;;;;;23.92;6.28;;;9.80;99.90;;;;;;5035576;28;20033;-71
2022/01/04 06:42:44;;;;;;;27.92;5.47;;;9.90;99.90;;;;;;5035293;28;20049;-70
2022/01/04 06:45:11;;;;;;;30.35;6.45;;;9.90;99.90;;;;;;5035163;28;20021;-70
2022/01/04 06:47:36;;;;;;;25.88;5.85;;;9.90;99.90;;;;;;5035449;28;20028;-70
2022/01/04 06:50:03;;;;;;;25.70;6.95;;;9.90;99.90;;;;;;5034600;28;20029;-71
2022/01/04 06:52:29;;;;;;;28.90;7.10;;;9.90;99.90;;;;;;5035243;28;20040;-69
2022/01/04 06:54:55;;;;;;;23.35;5.20;;;9.90;99.90;;;;;;5034897;28;20033;-70
2022/01/04 06:57:21;;;;;;;30.95;6.13;;;9.90;99.90;;;;;;5035097;28;20029;-69
2022/01/04 06:59:46;;;;;;;22.70;5.35;;;9.90;99.90;;;;;;5035254;28;20107;-69
2022/01/04 07:02:12;;;;;;;24.45;5.78;;;9.90;99.90;;;;;;5035389;28;20494;-71
2022/01/04 07:04:37;;;;;;;18.95;4.50;;;9.90;99.90;;;;;;5034855;28;20520;-70
2022/01/04 07:07:03;;;;;;;17.63;5.10;;;9.90;99.90;;;;;;5035125;28;20048;-70
2022/01/04 07:09:29;;;;;;;24.70;5.05;;;9.90;99.90;;;;;;5034638;28;20124;-70
2022/01/04 07:11:54;;;;;;;22.42;4.70;;;9.90;99.90;;;;;;5033253;28;20025;-70
2022/01/04 07:14:20;;;;;;;25.48;4.82;;;9.90;99.90;;;;;;5034592;28;20053;-70
2022/01/04 07:16:46;;;;;;;21.30;4.68;;;9.90;99.90;;;;;;5035143;28;20026;-69
2022/01/04 07:19:11;;;;;;;21.45;5.30;;;9.80;99.90;;;;;;5034326;28;20033;-69
2022/01/04 07:21:37;;;;;;;23.65;5.07;;;9.80;99.90;;;;;;5033123;28;20120;-70
2022/01/04 07:24:04;;;;;;;23.83;4.38;;;9.80;99.90;;;;;;5034871;28;20036;-70
2022/01/04 07:26:30;;;;;;;23.42;3.33;;;9.80;99.90;;;;;;5032810;28;20025;-70
2022/01/04 07:28:55;;;;;;;17.58;3.78;;;9.90;99.90;;;;;;5034420;28;20080;-68
2022/01/04 07:31:21;;;;;;;17.05;3.15;;;9.90;99.90;;;;;;5032947;28;20030;-70
2022/01/04 07:33:47;;;;;;;27.52;4.13;;;9.80;99.90;;;;;;5034255;28;20029;-69
2022/01/04 07:36:14;;;;;;;17.65;3.38;;;9.80;99.90;;;;;;5034286;28;20447;-70
2022/01/04 07:38:40;;;;;;;19.58;3.63;;;9.80;99.90;;;;;;5034272;28;20095;-69
2022/01/04 07:41:05;;;;;;;24.52;2.85;;;9.80;99.90;;;;;;5034057;28;20084;-69
2022/01/04 07:43:32;;;;;;;18.75;3.45;;;9.80;99.90;;;;;;5034178;28;20025;-70
2022/01/04 07:45:58;;;;;;;21.77;3.33;;;9.80;99.90;;;;;;5034255;28;20118;-69
2022/01/04 07:48:24;;;;;;;20.90;3.13;;;9.80;99.90;;;;;;5033617;28;20479;-70
2022/01/04 07:50:50;;;;;;;24.42;2.72;;;9.80;99.90;;;;;;5033905;28;20041;-69
2022/01/04 07:53:16;;;;;;;16.02;2.65;;;9.70;99.90;;;;;;5034016;28;20025;-71
2022/01/04 07:55:42;;;;;;;22.40;3.03;;;9.70;99.90;;;;;;5033985;28;20037;-70
2022/01/04 07:58:08;;;;;;;20.58;2.90;;;9.70;99.90;;;;;;5034105;28;20021;-70
2022/01/04 08:00:33;;;;;;;21.60;3.38;;;9.60;99.90;;;;;;5033549;28;20040;-68
2022/01/04 08:02:59;;;;;;;23.25;3.13;;;9.60;99.90;;;;;;5032259;28;20021;-69
2022/01/04 08:05:25;;;;;;;21.75;2.95;;;9.60;99.90;;;;;;5033590;28;20108;-70
2022/01/04 08:07:51;;;;;;;14.32;2.65;;;9.50;99.90;;;;;;5031216;28;20067;-70
2022/01/04 08:10:18;;;;;;;13.60;2.40;;;9.60;99.90;;;;;;5033301;28;20424;-70
2022/01/04 08:12:44;;;;;;;21.17;2.95;;;9.60;99.90;;;;;;5033305;28;20033;-69
2022/01/04 08:15:10;;;;;;;24.67;3.95;;;9.60;99.90;;;;;;5033409;28;20527;-69
2022/01/04 08:17:36;;;;;;;25.85;4.68;;;9.50;99.90;;;;;;5031727;28;20060;-69
2022/01/04 08:20:03;;;;;;;19.05;3.67;;;9.50;99.90;;;;;;5033298;28;20056;-69
2022/01/04 08:22:32;;;;;;;19.55;3.45;;;9.50;99.90;;;;;;5032809;28;20502;-69
2022/01/04 08:25:05;;;;;;;21.27;3.75;;;9.50;99.90;;;;;;5032978;28;20076;-70
2022/01/04 08:27:31;;;;;;;20.25;3.40;;;9.50;99.90;;;;;;5033129;28;20522;-70
2022/01/04 08:29:57;;;;;;;22.48;3.63;;;9.50;99.90;;;;;;5032799;28;20120;-71
2022/01/04 08:32:23;;;;;;;17.98;3.78;;;9.50;99.90;;;;;;5030407;28;20025;-68
2022/01/04 08:34:49;;;;;;;15.93;3.35;;;9.40;99.90;;;;;;5033065;28;20029;-71
2022/01/04 08:37:15;;;;;;;17.17;3.05;;;9.50;99.90;;;;;;5032621;28;20448;-69
2022/01/04 08:39:41;;;;;;;21.88;3.45;;;9.50;99.90;;;;;;5032945;28;20105;-70
2022/01/04 08:42:07;;;;;;;23.40;4.57;;;9.50;99.90;;;;;;5030878;28;20079;-69
2022/01/04 08:44:36;;;;;;;18.70;3.22;;;9.50;99.90;;;;;;5032894;28;20460;-68
2022/01/04 08:47:02;;;;;;;23.45;3.90;;;9.60;99.90;;;;;;5032884;28;20039;-70
2022/01/04 08:49:30;;;;;;;13.98;2.95;;;9.60;99.90;;;;;;5032785;28;20033;-69
2022/01/04 08:51:55;;;;;;;18.73;3.15;;;9.50;99.90;;;;;;5032655;28;20029;-70
2022/01/04 08:54:21;;;;;;;19.98;3.58;;;9.50;99.90;;;;;;5032791;28;20337;-70
2022/01/04 08:56:46;;;;;;;20.58;3.20;;;9.50;99.90;;;;;;5031110;28;20116;-69
2022/01/04 08:59:13;;;;;;;24.13;5.68;;;9.50;99.90;;;;;;5032549;28;20075;-70
2022/01/04 09:01:40;;;;;;;20.23;3.38;;;9.50;99.90;;;;;;5032387;28;20049;-69
2022/01/04 09:04:06;;;;;;;23.02;3.55;;;9.50;99.90;;;;;;5032517;28;20064;-70
2022/01/04 09:06:33;;;;;;;13.48;3.28;;;9.50;99.90;;;;;;5032433;28;20083;-68
2022/01/04 09:09:00;;;;;;;18.52;3.05;;;9.60;99.90;;;;;;5032333;28;20037;-69
2022/01/04 09:11:26;;;;;;;16.60;4.55;;;9.60;99.90;;;;;;5032326;28;20041;-71
2022/01/04 09:14:12;;;;;;;20.88;4.05;;;9.60;99.90;;;;;;5032232;28;20045;-69
2022/01/04 09:19:25;;;;;;;28.48;4.15;;;9.60;99.90;;;;;;5032823;28;20040;-69
2022/01/04 09:21:51;;;;;;;19.88;4.45;;;9.60;99.90;;;;;;5032555;28;20037;-69
2022/01/04 09:24:17;;;;;;;26.55;4.25;;;9.60;99.90;;;;;;5030149;28;20017;-68
2022/01/04 09:26:43;;;;;;;8.65;3.15;;;9.60;99.90;;;;;;5031837;28;20175;-70
2022/01/04 09:29:09;;;;;;;21.38;3.13;;;9.70;99.90;;;;;;5032128;28;20130;-68
2022/01/04 09:31:35;;;;;;;7.95;1.73;;;9.70;99.90;;;;;;5031737;28;20076;-69
2022/01/04 09:34:02;;;;;;;13.05;3.35;;;9.70;99.90;;;;;;5032489;28;20090;-68
2022/01/04 09:36:37;;;;;;;10.63;2.10;;;9.80;99.90;;;;;;5032012;28;20033;-71
2022/01/04 09:39:06;;;;;;;13.68;2.50;;;9.80;99.90;;;;;;5032209;28;20026;-69
2022/01/04 09:41:31;;;;;;;9.95;1.90;;;9.80;99.90;;;;;;5031837;28;20053;-70
2022/01/04 09:43:58;;;;;;;12.88;1.85;;;9.90;99.90;;;;;;5032204;28;20024;-69
2022/01/04 09:46:23;;;;;;;12.32;2.33;;;9.90;99.90;;;;;;5031793;28;20044;-70
2022/01/04 09:48:49;;;;;;;10.20;2.22;;;9.90;99.90;;;;;;5032316;28;20034;-70
2022/01/04 09:51:16;;;;;;;11.95;2.97;;;9.80;99.90;;;;;;5031498;28;20514;-70
2022/01/04 09:53:41;;;;;;;19.10;4.15;;;9.80;99.90;;;;;;5032922;28;20036;-70
2022/01/04 09:56:07;;;;;;;18.33;3.88;;;9.80;99.90;;;;;;5034409;28;20025;-70
2022/01/04 09:58:33;;;;;;;22.13;4.68;;;9.70;99.90;;;;;;5036077;28;20030;-69
2022/01/04 10:00:59;;;;;;;21.75;4.40;;;9.70;99.90;;;;;;5035859;28;20041;-69
2022/01/04 10:03:29;;;;;;;17.00;3.30;;;9.70;99.90;;;;;;5035554;28;20393;-70
2022/01/04 10:06:15;;;;;;;15.15;2.80;;;9.60;99.90;;;;;;5035182;28;20029;-70
2022/01/04 10:09:00;;;;;;;11.60;3.17;;;9.50;99.90;;;;;;5035726;28;20132;-68
2022/01/04 10:11:47;;;;;;;10.77;2.55;;;9.50;99.90;;;;;;5035837;28;20040;-69
2022/01/04 10:14:38;;;;;;;11.38;2.80;;;9.50;99.90;;;;;;5035628;28;20049;-68
2022/01/04 10:17:09;;;;;;;14.10;2.90;;;9.40;99.90;;;;;;5035751;28;20435;-70
2022/01/04 10:19:55;;;;;;;10.55;2.85;;;9.40;99.90;;;;;;5035964;28;20489;-70
2022/01/04 10:22:27;;;;;;;7.68;1.67;;;9.30;99.90;;;;;;5035005;28;20037;-71
2022/01/04 10:25:02;;;;;;;6.60;1.73;;;9.30;99.90;;;;;;5035336;28;20029;-68
2022/01/04 10:27:31;;;;;;;1.92;0.93;;;9.20;99.90;;;;;;5035134;28;20045;-70
2022/01/04 10:30:15;;;;;;;6.18;1.08;;;9.10;99.90;;;;;;5035414;28;20045;-70
2022/01/04 10:32:57;;;;;;;1.55;0.68;;;9.00;99.90;;;;;;5035311;28;20116;-71
2022/01/04 10:35:40;;;;;;;4.65;0.88;;;8.90;99.90;;;;;;5035416;28;20060;-68
2022/01/04 10:38:24;;;;;;;12.90;2.03;;;8.80;99.90;;;;;;5035178;28;20060;-69
2022/01/04 10:41:02;;;;;;;11.07;2.72;;;8.80;99.90;;;;;;5035574;28;20025;-70
2022/01/04 10:43:36;;;;;;;4.18;1.10;;;8.80;99.90;;;;;;5032719;28;20170;-71
2022/01/04 10:46:02;;;;;;;5.28;1.05;;;8.80;99.90;;;;;;5033617;28;20032;-68
2022/01/04 10:48:36;;;;;;;6.97;1.73;;;8.90;99.90;;;;;;5033767;28;20486;-68
2022/01/04 10:51:16;;;;;;;5.38;1.60;;;8.90;99.90;;;;;;5034550;28;20045;-69
2022/01/04 10:53:51;;;;;;;8.55;1.30;;;9.00;99.90;;;;;;5034208;28;20021;-72
2022/01/04 10:56:31;;;;;;;7.47;1.17;;;9.20;99.90;;;;;;5033514;28;20029;-70
2022/01/04 10:58:59;;;;;;;9.55;1.15;;;9.30;99.90;;;;;;5034568;28;20116;-68
2022/01/04 11:01:31;;;;;;;5.40;1.15;;;9.40;99.90;;;;;;5034854;28;20530;-71
2022/01/04 11:04:01;;;;;;;6.28;1.80;;;9.50;99.90;;;;;;5034187;28;20053;-70
2022/01/04 11:06:39;;;;;;;5.22;1.52;;;9.50;99.90;;;;;;5034795;28;20068;-71
2022/01/04 11:09:06;;;;;;;6.63;1.58;;;9.50;99.90;;;;;;5034528;28;20026;-70
2022/01/04 11:11:32;;;;;;;10.35;1.38;;;9.40;99.90;;;;;;5034940;28;20034;-71
2022/01/04 11:13:57;;;;;;;11.73;1.60;;;9.30;99.90;;;;;;5034472;28;20103;-71
2022/01/04 11:16:26;;;;;;;6.78;1.63;;;9.30;99.90;;;;;;5034624;28;20029;-71
2022/01/04 11:18:53;;;;;;;6.38;1.10;;;9.20;99.90;;;;;;5034200;28;20021;-69
2022/01/04 11:21:25;;;;;;;6.07;1.25;;;9.10;99.90;;;;;;5033883;28;20026;-71
2022/01/04 11:23:52;;;;;;;;;;;9.10;99.90;;;;;;5028722;28;20021;-71
2022/01/04 11:26:18;;;;;;;5.28;0.90;;;9.00;99.90;;;;;;5034089;28;19916;-69
2022/01/04 11:28:48;;;;;;;3.85;0.95;;;9.00;99.90;;;;;;5034304;28;20567;-70
2022/01/04 11:31:19;;;;;;;6.07;1.00;;;8.90;99.90;;;;;;5033467;28;20037;-70
2022/01/04 11:33:56;;;;;;;10.52;1.20;;;8.90;99.90;;;;;;5033922;28;20100;-69
2022/01/04 11:36:24;;;;;;;6.43;0.90;;;8.80;99.90;;;;;;5034248;28;20068;-71
2022/01/04 11:38:50;;;;;;;4.05;0.70;;;8.80;99.90;;;;;;5034232;28;20025;-71
2022/01/04 11:41:38;;;;;;;7.30;1.13;;;8.70;99.90;;;;;;5032479;28;20034;-69
2022/01/04 11:44:22;;;;;;;4.13;0.90;;;8.70;99.90;;;;;;5033925;28;20068;-71
2022/01/04 11:47:07;;;;;;;7.25;1.02;;;8.60;99.90;;;;;;5033436;28;20525;-69
2022/01/04 11:49:36;;;;;;;7.13;1.67;;;8.70;99.90;;;;;;5033189;28;20397;-71
2022/01/04 11:52:22;;;;;;;7.63;0.88;;;8.80;99.90;;;;;;5033184;28;20033;-71
2022/01/04 11:55:08;;;;;;;6.28;0.85;;;8.70;99.90;;;;;;5033159;28;20037;-70
2022/01/04 11:57:39;;;;;;;9.93;1.10;;;8.70;99.90;;;;;;5033392;28;20064;-69
2022/01/04 12:00:06;;;;;;;5.45;0.90;;;8.60;99.90;;;;;;5033345;28;20060;-70
2022/01/04 12:02:37;;;;;;;2.53;1.10;;;8.60;99.90;;;;;;5031628;28;20034;-70
2022/01/04 12:05:04;;;;;;;5.70;1.75;;;8.50;99.90;;;;;;5033448;28;20076;-70
2022/01/04 12:07:38;;;;;;;6.90;0.88;;;8.50;99.90;;;;;;5033447;28;20025;-69
2022/01/04 12:10:22;;;;;;;8.90;0.88;;;8.50;99.90;;;;;;5033347;28;20037;-70
2022/01/04 12:13:20;;;;;;;5.53;0.75;;;8.60;99.90;;;;;;5032975;28;20026;-70
2022/01/04 12:15:47;;;;;;;4.35;0.77;;;8.60;99.90;;;;;;5032248;28;20029;-70
2022/01/04 12:18:31;;;;;;;5.93;1.05;;;8.60;99.90;;;;;;5031443;28;20431;-69
2022/01/04 12:21:01;;;;;;;7.55;1.13;;;8.60;99.90;;;;;;5032526;28;20073;-70
2022/01/04 12:23:27;;;;;;;7.95;1.25;;;8.70;99.90;;;;;;5032804;28;20053;-70
2022/01/04 12:26:04;;;;;;;8.30;1.10;;;8.70;99.90;;;;;;5032706;28;20049;-71
2022/01/04 12:28:34;;;;;;;7.22;1.38;;;8.80;99.90;;;;;;5032605;28;20021;-71
2022/01/04 12:31:19;;;;;;;6.45;1.00;;;8.80;99.90;;;;;;5031656;28;20080;-71
2022/01/04 12:33:52;;;;;;;9.18;1.67;;;8.90;99.90;;;;;;5032415;28;20018;-70
2022/01/04 12:36:26;;;;;;;14.00;1.80;;;9.00;99.90;;;;;;5032840;28;20033;-70
2022/01/04 12:38:57;;;;;;;6.35;1.15;;;9.10;99.90;;;;;;5033253;28;20032;-71
2022/01/04 12:41:24;;;;;;;9.63;1.10;;;9.10;99.90;;;;;;5032624;28;20044;-71
2022/01/04 12:43:50;;;;;;;7.95;1.13;;;9.20;99.90;;;;;;5033002;28;20484;-71
2022/01/04 12:46:30;;;;;;;8.15;1.50;;;9.10;99.90;;;;;;5032584;28;20108;-71
2022/01/04 12:49:01;;;;;;;8.63;1.63;;;9.20;99.90;;;;;;5032438;28;20029;-71
2022/01/04 12:51:31;;;;;;;9.23;1.65;;;9.10;99.90;;;;;;5032529;28;20030;-71
2022/01/04 12:54:07;;;;;;;9.90;1.65;;;9.10;99.90;;;;;;5032352;28;20021;-69
2022/01/04 12:56:39;;;;;;;7.38;1.63;;;9.10;99.90;;;;;;5032183;28;20043;-70
2022/01/04 12:59:05;;;;;;;6.38;1.55;;;9.10;99.90;;;;;;5032298;28;20033;-69